JBU1296 KILM-KJAX
Flight info
| Callsign | JBU1296 |
|---|---|
| Flight time | 0h 58m |
| Altitude | 34000 |
| Route | ESENT LUNNI2 |
| Aircraft | A320/M-SDE3FGHIRWY/LB1 |
Departure
| Time | 2026-04-23 03:33 |
|---|---|
| Airport | Wilmington International Airport (KILM) |
Arrival
| Time | 2026-04-23 04:32 |
|---|---|
| Airport | Jacksonville International Airport (KJAX) |
| Time | Latitude | Longitude | Altitude | Speed | Heading |
|---|---|---|---|---|---|
| 2026-04-23 03:11 | 34.26695 | -77.90852 | 41 ft | 0 kts | 186° |
| 2026-04-23 03:23 | 34.26696 | -77.90852 | 41 ft | 2 kts | 186° |
| 2026-04-23 03:23 | 34.26713 | -77.90849 | 39 ft | 2 kts | 158° |
| 2026-04-23 03:24 | 34.26725 | -77.90861 | 38 ft | 0 kts | 97° |
| 2026-04-23 03:27 | 34.26724 | -77.90850 | 39 ft | 4 kts | 96° |
| 2026-04-23 03:27 | 34.26727 | -77.90779 | 41 ft | 10 kts | 108° |
| 2026-04-23 03:27 | 34.26701 | -77.90699 | 39 ft | 10 kts | 110° |
| 2026-04-23 03:27 | 34.26715 | -77.90618 | 39 ft | 11 kts | 52° |
| 2026-04-23 03:28 | 34.26769 | -77.90540 | 40 ft | 13 kts | 47° |
| 2026-04-23 03:28 | 34.26838 | -77.90448 | 40 ft | 16 kts | 49° |
| 2026-04-23 03:28 | 34.26915 | -77.90336 | 39 ft | 18 kts | 51° |
| 2026-04-23 03:28 | 34.26994 | -77.90210 | 40 ft | 20 kts | 53° |
| 2026-04-23 03:29 | 34.27081 | -77.90074 | 40 ft | 21 kts | 51° |
| 2026-04-23 03:29 | 34.27183 | -77.89936 | 40 ft | 23 kts | 49° |
| 2026-04-23 03:29 | 34.27289 | -77.89782 | 39 ft | 25 kts | 50° |
| 2026-04-23 03:29 | 34.27433 | -77.89673 | 40 ft | 25 kts | 18° |
| 2026-04-23 03:30 | 34.27555 | -77.89525 | 40 ft | 26 kts | 48° |
| 2026-04-23 03:30 | 34.27662 | -77.89381 | 40 ft | 24 kts | 48° |
| 2026-04-23 03:30 | 34.27756 | -77.89225 | 40 ft | 21 kts | 84° |
| 2026-04-23 03:30 | 34.27669 | -77.89091 | 39 ft | 21 kts | 145° |
| 2026-04-23 03:31 | 34.27607 | -77.89117 | 37 ft | 10 kts | 224° |
| 2026-04-23 03:31 | 34.27604 | -77.89120 | 38 ft | 0 kts | 226° |
| 2026-04-23 03:33 | 34.27600 | -77.89125 | 39 ft | 4 kts | 226° |
| 2026-04-23 03:33 | 34.27437 | -77.89345 | 38 ft | 70 kts | 229° |
| 2026-04-23 03:33 | 34.26960 | -77.89985 | 41 ft | 136 kts | 227° |
| 2026-04-23 03:33 | 34.26324 | -77.90906 | 678 ft | 144 kts | 227° |
| 2026-04-23 03:34 | 34.25651 | -77.91852 | 1476 ft | 153 kts | 230° |
| 2026-04-23 03:34 | 34.24887 | -77.92862 | 2131 ft | 178 kts | 228° |
| 2026-04-23 03:34 | 34.23997 | -77.93976 | 2576 ft | 196 kts | 230° |
| 2026-04-23 03:34 | 34.23067 | -77.95312 | 2979 ft | 220 kts | 234° |
| 2026-04-23 03:35 | 34.22085 | -77.96840 | 3499 ft | 238 kts | 235° |
| 2026-04-23 03:35 | 34.21054 | -77.98449 | 4309 ft | 245 kts | 235° |
| 2026-04-23 03:35 | 34.19986 | -78.00097 | 5124 ft | 253 kts | 235° |
| 2026-04-23 03:35 | 34.18883 | -78.01780 | 5955 ft | 258 kts | 235° |
| 2026-04-23 03:36 | 34.17746 | -78.03495 | 6776 ft | 264 kts | 235° |
| 2026-04-23 03:36 | 34.16575 | -78.05242 | 7535 ft | 271 kts | 235° |
| 2026-04-23 03:36 | 34.15373 | -78.07029 | 8284 ft | 278 kts | 236° |
| 2026-04-23 03:36 | 34.14158 | -78.08836 | 8995 ft | 285 kts | 234° |
| 2026-04-23 03:37 | 34.12893 | -78.10713 | 9732 ft | 292 kts | 234° |
| 2026-04-23 03:37 | 34.11593 | -78.12640 | 10317 ft | 304 kts | 234° |
| 2026-04-23 03:37 | 34.10207 | -78.14695 | 10532 ft | 327 kts | 234° |
| 2026-04-23 03:37 | 34.08732 | -78.16881 | 10925 ft | 341 kts | 233° |
| 2026-04-23 03:38 | 34.07223 | -78.19116 | 11580 ft | 346 kts | 233° |
| 2026-04-23 03:38 | 34.05694 | -78.21375 | 12294 ft | 349 kts | 233° |
| 2026-04-23 03:38 | 34.04151 | -78.23650 | 13009 ft | 352 kts | 233° |
| 2026-04-23 03:38 | 34.02596 | -78.25941 | 13730 ft | 355 kts | 232° |
| 2026-04-23 03:39 | 34.01027 | -78.28252 | 14380 ft | 358 kts | 232° |
| 2026-04-23 03:39 | 33.99467 | -78.30553 | 14990 ft | 360 kts | 232° |
| 2026-04-23 03:39 | 33.97878 | -78.32898 | 15610 ft | 363 kts | 232° |
| 2026-04-23 03:39 | 33.96277 | -78.35263 | 16227 ft | 365 kts | 232° |
| 2026-04-23 03:40 | 33.94665 | -78.37640 | 16837 ft | 368 kts | 232° |
| 2026-04-23 03:40 | 33.93036 | -78.40033 | 17449 ft | 371 kts | 233° |
| 2026-04-23 03:40 | 33.91392 | -78.42444 | 18071 ft | 373 kts | 233° |
| 2026-04-23 03:40 | 33.89742 | -78.44870 | 18662 ft | 376 kts | 233° |
| 2026-04-23 03:41 | 33.88080 | -78.47316 | 19231 ft | 379 kts | 233° |
| 2026-04-23 03:41 | 33.86405 | -78.49776 | 19772 ft | 382 kts | 233° |
| 2026-04-23 03:41 | 33.84713 | -78.52259 | 20329 ft | 385 kts | 233° |
| 2026-04-23 03:41 | 33.83031 | -78.54726 | 20861 ft | 388 kts | 233° |
| 2026-04-23 03:42 | 33.81309 | -78.57247 | 21383 ft | 392 kts | 233° |
| 2026-04-23 03:42 | 33.79572 | -78.59786 | 21907 ft | 395 kts | 233° |
| 2026-04-23 03:42 | 33.77816 | -78.62345 | 22419 ft | 398 kts | 233° |
| 2026-04-23 03:42 | 33.76044 | -78.64923 | 22930 ft | 401 kts | 233° |
| 2026-04-23 03:43 | 33.74261 | -78.67519 | 23422 ft | 405 kts | 233° |
| 2026-04-23 03:43 | 33.72464 | -78.70139 | 23865 ft | 408 kts | 232° |
| 2026-04-23 03:43 | 33.70649 | -78.72786 | 24239 ft | 412 kts | 232° |
| 2026-04-23 03:43 | 33.68820 | -78.75451 | 24634 ft | 416 kts | 233° |
| 2026-04-23 03:44 | 33.66999 | -78.78104 | 25013 ft | 419 kts | 233° |
| 2026-04-23 03:44 | 33.65138 | -78.80815 | 25373 ft | 422 kts | 233° |
| 2026-04-23 03:44 | 33.63264 | -78.83545 | 25736 ft | 425 kts | 233° |
| 2026-04-23 03:44 | 33.61374 | -78.86297 | 26102 ft | 429 kts | 233° |
| 2026-04-23 03:45 | 33.59472 | -78.89065 | 26456 ft | 432 kts | 233° |
| 2026-04-23 03:45 | 33.57554 | -78.91848 | 26808 ft | 435 kts | 233° |
| 2026-04-23 03:45 | 33.55614 | -78.94653 | 27146 ft | 438 kts | 233° |
| 2026-04-23 03:45 | 33.53667 | -78.97472 | 27491 ft | 441 kts | 233° |
| 2026-04-23 03:46 | 33.51704 | -79.00311 | 27825 ft | 444 kts | 233° |
| 2026-04-23 03:46 | 33.49757 | -79.03126 | 28169 ft | 446 kts | 233° |
| 2026-04-23 03:46 | 33.47770 | -79.05999 | 28494 ft | 449 kts | 233° |
| 2026-04-23 03:46 | 33.45768 | -79.08891 | 28829 ft | 452 kts | 233° |
| 2026-04-23 03:47 | 33.43755 | -79.11798 | 29155 ft | 455 kts | 233° |
| 2026-04-23 03:47 | 33.41725 | -79.14725 | 29480 ft | 458 kts | 233° |
| 2026-04-23 03:47 | 33.39679 | -79.17668 | 29806 ft | 461 kts | 233° |
| 2026-04-23 03:47 | 33.37618 | -79.20624 | 30132 ft | 464 kts | 232° |
| 2026-04-23 03:48 | 33.35545 | -79.23593 | 30415 ft | 467 kts | 233° |
| 2026-04-23 03:48 | 33.33463 | -79.26579 | 30751 ft | 467 kts | 233° |
| 2026-04-23 03:48 | 33.31412 | -79.29519 | 31163 ft | 466 kts | 233° |
| 2026-04-23 03:48 | 33.29338 | -79.32489 | 31575 ft | 465 kts | 233° |
| 2026-04-23 03:49 | 33.27268 | -79.35453 | 31998 ft | 464 kts | 233° |
| 2026-04-23 03:49 | 33.25207 | -79.38406 | 32421 ft | 462 kts | 233° |
| 2026-04-23 03:49 | 33.23152 | -79.41353 | 32847 ft | 461 kts | 233° |
| 2026-04-23 03:49 | 33.21099 | -79.44291 | 33264 ft | 460 kts | 233° |
| 2026-04-23 03:50 | 33.19050 | -79.47217 | 33682 ft | 459 kts | 233° |
| 2026-04-23 03:50 | 33.17028 | -79.50096 | 34076 ft | 459 kts | 233° |
| 2026-04-23 03:50 | 33.14978 | -79.53013 | 34177 ft | 459 kts | 233° |
| 2026-04-23 03:50 | 33.12931 | -79.55930 | 34191 ft | 458 kts | 233° |
| 2026-04-23 03:51 | 33.08844 | -79.61754 | 34184 ft | 457 kts | 233° |
| 2026-04-23 03:51 | 33.04760 | -79.67571 | 34186 ft | 457 kts | 233° |
| 2026-04-23 03:52 | 33.00701 | -79.73339 | 34202 ft | 457 kts | 233° |
| 2026-04-23 03:52 | 32.96602 | -79.79132 | 34198 ft | 457 kts | 233° |
| 2026-04-23 03:53 | 32.92498 | -79.84918 | 34196 ft | 457 kts | 233° |
| 2026-04-23 03:53 | 32.88401 | -79.90709 | 34198 ft | 457 kts | 233° |
| 2026-04-23 03:54 | 32.84303 | -79.96493 | 34202 ft | 457 kts | 233° |
| 2026-04-23 03:54 | 32.80227 | -80.02240 | 34204 ft | 458 kts | 232° |
| 2026-04-23 03:55 | 32.76117 | -80.08011 | 34209 ft | 458 kts | 232° |
| 2026-04-23 03:55 | 32.72003 | -80.13778 | 34218 ft | 457 kts | 232° |
| 2026-04-23 03:56 | 32.67897 | -80.19527 | 34209 ft | 456 kts | 232° |
| 2026-04-23 03:56 | 32.63821 | -80.25231 | 34211 ft | 456 kts | 232° |
| 2026-04-23 03:57 | 32.59717 | -80.30966 | 34210 ft | 456 kts | 232° |
| 2026-04-23 03:57 | 32.57474 | -80.33634 | 34209 ft | 459 kts | 219° |
| 2026-04-23 03:57 | 32.54734 | -80.35600 | 34210 ft | 462 kts | 208° |
| 2026-04-23 03:58 | 32.48975 | -80.38980 | 34200 ft | 462 kts | 208° |
| 2026-04-23 03:58 | 32.43199 | -80.42325 | 34205 ft | 462 kts | 208° |
| 2026-04-23 03:59 | 32.37469 | -80.45659 | 34205 ft | 462 kts | 208° |
| 2026-04-23 03:59 | 32.31705 | -80.49016 | 34203 ft | 462 kts | 208° |
| 2026-04-23 04:00 | 32.25946 | -80.52376 | 34199 ft | 462 kts | 208° |
| 2026-04-23 04:00 | 32.20188 | -80.55725 | 34196 ft | 461 kts | 208° |
| 2026-04-23 04:01 | 32.14468 | -80.59036 | 34200 ft | 461 kts | 208° |
| 2026-04-23 04:01 | 32.08716 | -80.62361 | 34194 ft | 460 kts | 208° |
| 2026-04-23 04:02 | 32.02967 | -80.65688 | 33965 ft | 460 kts | 208° |
| 2026-04-23 04:02 | 32.00102 | -80.67346 | 33411 ft | 457 kts | 208° |
| 2026-04-23 04:02 | 31.97258 | -80.68987 | 32892 ft | 454 kts | 208° |
| 2026-04-23 04:03 | 31.94431 | -80.70617 | 32364 ft | 451 kts | 207° |
| 2026-04-23 04:03 | 31.91659 | -80.72214 | 31833 ft | 448 kts | 207° |
| 2026-04-23 04:03 | 31.88867 | -80.73824 | 31311 ft | 446 kts | 207° |
| 2026-04-23 04:03 | 31.86087 | -80.75427 | 30785 ft | 444 kts | 207° |
| 2026-04-23 04:04 | 31.83321 | -80.77021 | 30259 ft | 442 kts | 207° |
| 2026-04-23 04:04 | 31.80565 | -80.78609 | 29689 ft | 439 kts | 207° |
| 2026-04-23 04:04 | 31.77832 | -80.80182 | 29190 ft | 435 kts | 207° |
| 2026-04-23 04:04 | 31.75121 | -80.81739 | 28684 ft | 432 kts | 207° |
| 2026-04-23 04:05 | 31.72435 | -80.83280 | 28192 ft | 428 kts | 207° |
| 2026-04-23 04:05 | 31.69807 | -80.84784 | 27718 ft | 424 kts | 207° |
| 2026-04-23 04:05 | 31.67168 | -80.86293 | 27239 ft | 421 kts | 207° |
| 2026-04-23 04:05 | 31.64548 | -80.87794 | 26792 ft | 417 kts | 207° |
| 2026-04-23 04:06 | 31.61949 | -80.89283 | 26347 ft | 414 kts | 207° |
| 2026-04-23 04:06 | 31.59364 | -80.90761 | 25901 ft | 412 kts | 208° |
| 2026-04-23 04:06 | 31.56793 | -80.92230 | 25454 ft | 410 kts | 207° |
| 2026-04-23 04:06 | 31.54238 | -80.93689 | 25016 ft | 408 kts | 208° |
| 2026-04-23 04:07 | 31.51694 | -80.95141 | 24578 ft | 406 kts | 208° |
| 2026-04-23 04:07 | 31.49156 | -80.96587 | 24137 ft | 405 kts | 208° |
| 2026-04-23 04:07 | 31.46627 | -80.98032 | 23654 ft | 404 kts | 208° |
| 2026-04-23 04:07 | 31.44139 | -80.99452 | 23165 ft | 401 kts | 208° |
| 2026-04-23 04:08 | 31.41654 | -81.00864 | 22703 ft | 393 kts | 208° |
| 2026-04-23 04:08 | 31.39224 | -81.02243 | 22241 ft | 384 kts | 208° |
| 2026-04-23 04:08 | 31.36848 | -81.03595 | 21783 ft | 375 kts | 208° |
| 2026-04-23 04:08 | 31.34525 | -81.04917 | 21325 ft | 367 kts | 208° |
| 2026-04-23 04:09 | 31.32237 | -81.06222 | 20881 ft | 365 kts | 208° |
| 2026-04-23 04:09 | 31.29959 | -81.07519 | 20435 ft | 363 kts | 207° |
| 2026-04-23 04:09 | 31.27720 | -81.08790 | 19976 ft | 362 kts | 207° |
| 2026-04-23 04:09 | 31.25460 | -81.10074 | 19523 ft | 360 kts | 207° |
| 2026-04-23 04:10 | 31.23210 | -81.11353 | 19071 ft | 359 kts | 207° |
| 2026-04-23 04:10 | 31.20970 | -81.12622 | 18612 ft | 355 kts | 207° |
| 2026-04-23 04:10 | 31.18753 | -81.13878 | 17983 ft | 357 kts | 207° |
| 2026-04-23 04:10 | 31.16525 | -81.15137 | 17461 ft | 352 kts | 207° |
| 2026-04-23 04:11 | 31.14355 | -81.16363 | 17024 ft | 342 kts | 207° |
| 2026-04-23 04:11 | 31.12239 | -81.17562 | 16593 ft | 333 kts | 206° |
| 2026-04-23 04:11 | 31.10164 | -81.18738 | 16170 ft | 331 kts | 206° |
| 2026-04-23 04:11 | 31.08096 | -81.19906 | 15747 ft | 329 kts | 206° |
| 2026-04-23 04:12 | 31.06069 | -81.21049 | 15332 ft | 327 kts | 206° |
| 2026-04-23 04:12 | 31.04025 | -81.22204 | 14915 ft | 326 kts | 205° |
| 2026-04-23 04:12 | 31.01990 | -81.23351 | 14495 ft | 324 kts | 205° |
| 2026-04-23 04:12 | 30.99966 | -81.24494 | 14076 ft | 320 kts | 205° |
| 2026-04-23 04:13 | 30.97976 | -81.25616 | 13640 ft | 317 kts | 205° |
| 2026-04-23 04:13 | 30.95998 | -81.26732 | 13228 ft | 315 kts | 205° |
| 2026-04-23 04:13 | 30.94031 | -81.27840 | 12822 ft | 313 kts | 205° |
| 2026-04-23 04:13 | 30.92078 | -81.28941 | 12431 ft | 311 kts | 205° |
| 2026-04-23 04:14 | 30.90129 | -81.30037 | 12030 ft | 310 kts | 205° |
| 2026-04-23 04:14 | 30.88224 | -81.31105 | 11794 ft | 304 kts | 205° |
| 2026-04-23 04:14 | 30.86439 | -81.32358 | 11576 ft | 297 kts | 218° |
| 2026-04-23 04:14 | 30.84989 | -81.34033 | 11369 ft | 295 kts | 231° |
| 2026-04-23 04:15 | 30.83828 | -81.35998 | 11009 ft | 295 kts | 236° |
| 2026-04-23 04:15 | 30.82692 | -81.37986 | 10616 ft | 295 kts | 236° |
| 2026-04-23 04:15 | 30.80415 | -81.41943 | 9825 ft | 291 kts | 236° |
| 2026-04-23 04:16 | 30.79292 | -81.43887 | 9440 ft | 288 kts | 236° |
| 2026-04-23 04:16 | 30.78192 | -81.45790 | 9070 ft | 286 kts | 236° |
| 2026-04-23 04:16 | 30.77085 | -81.47707 | 8698 ft | 285 kts | 236° |
| 2026-04-23 04:16 | 30.75984 | -81.49615 | 8324 ft | 283 kts | 236° |
| 2026-04-23 04:17 | 30.74889 | -81.51513 | 7953 ft | 282 kts | 236° |
| 2026-04-23 04:17 | 30.73794 | -81.53409 | 7587 ft | 283 kts | 236° |
| 2026-04-23 04:17 | 30.72696 | -81.55309 | 7210 ft | 283 kts | 237° |
| 2026-04-23 04:17 | 30.71595 | -81.57210 | 6826 ft | 284 kts | 236° |
| 2026-04-23 04:18 | 30.70495 | -81.59107 | 6477 ft | 283 kts | 237° |
| 2026-04-23 04:18 | 30.69394 | -81.61002 | 6172 ft | 281 kts | 237° |
| 2026-04-23 04:18 | 30.68323 | -81.62848 | 5855 ft | 279 kts | 237° |
| 2026-04-23 04:18 | 30.67245 | -81.64711 | 5591 ft | 275 kts | 237° |
| 2026-04-23 04:19 | 30.66188 | -81.66555 | 5470 ft | 274 kts | 237° |
| 2026-04-23 04:19 | 30.65140 | -81.68394 | 5345 ft | 272 kts | 237° |
| 2026-04-23 04:19 | 30.64097 | -81.70227 | 5223 ft | 272 kts | 237° |
| 2026-04-23 04:19 | 30.63053 | -81.72055 | 5103 ft | 271 kts | 237° |
| 2026-04-23 04:20 | 30.62013 | -81.73877 | 4977 ft | 270 kts | 237° |
| 2026-04-23 04:20 | 30.60977 | -81.75695 | 4849 ft | 270 kts | 236° |
| 2026-04-23 04:20 | 30.59944 | -81.77511 | 4723 ft | 269 kts | 236° |
| 2026-04-23 04:20 | 30.58928 | -81.79294 | 4593 ft | 268 kts | 236° |
| 2026-04-23 04:21 | 30.57898 | -81.81096 | 4477 ft | 267 kts | 236° |
| 2026-04-23 04:21 | 30.56869 | -81.82889 | 4348 ft | 267 kts | 236° |
| 2026-04-23 04:21 | 30.55842 | -81.84675 | 4226 ft | 266 kts | 236° |
| 2026-04-23 04:21 | 30.54818 | -81.86461 | 4100 ft | 265 kts | 236° |
| 2026-04-23 04:22 | 30.53800 | -81.88243 | 3971 ft | 264 kts | 236° |
| 2026-04-23 04:22 | 30.52785 | -81.90016 | 3864 ft | 264 kts | 236° |
| 2026-04-23 04:22 | 30.51771 | -81.91786 | 3738 ft | 263 kts | 236° |
| 2026-04-23 04:22 | 30.50758 | -81.93550 | 3613 ft | 262 kts | 235° |
| 2026-04-23 04:23 | 30.49760 | -81.95283 | 3497 ft | 261 kts | 235° |
| 2026-04-23 04:23 | 30.48754 | -81.97032 | 3380 ft | 261 kts | 235° |
| 2026-04-23 04:23 | 30.47750 | -81.98778 | 3249 ft | 258 kts | 235° |
| 2026-04-23 04:23 | 30.46774 | -82.00478 | 3121 ft | 249 kts | 235° |
| 2026-04-23 04:24 | 30.45835 | -82.02117 | 2996 ft | 239 kts | 235° |
| 2026-04-23 04:24 | 30.44901 | -82.03656 | 2870 ft | 228 kts | 225° |
| 2026-04-23 04:24 | 30.43588 | -82.04513 | 2753 ft | 213 kts | 188° |
| 2026-04-23 04:24 | 30.42160 | -82.04351 | 2624 ft | 205 kts | 159° |
| 2026-04-23 04:25 | 30.41010 | -82.03474 | 2495 ft | 199 kts | 133° |
| 2026-04-23 04:25 | 30.40345 | -82.02129 | 2414 ft | 189 kts | 108° |
| 2026-04-23 04:25 | 30.40248 | -82.00674 | 2266 ft | 177 kts | 84° |
| 2026-04-23 04:25 | 30.40599 | -81.99327 | 2131 ft | 173 kts | 74° |
| 2026-04-23 04:26 | 30.40999 | -81.98034 | 2011 ft | 168 kts | 75° |
| 2026-04-23 04:26 | 30.41394 | -81.96755 | 1929 ft | 167 kts | 74° |
| 2026-04-23 04:26 | 30.41785 | -81.95486 | 2012 ft | 168 kts | 75° |
| 2026-04-23 04:26 | 30.42179 | -81.94211 | 2016 ft | 168 kts | 75° |
| 2026-04-23 04:27 | 30.42567 | -81.92952 | 2019 ft | 168 kts | 74° |
| 2026-04-23 04:27 | 30.42961 | -81.91673 | 1962 ft | 169 kts | 74° |
| 2026-04-23 04:27 | 30.43355 | -81.90396 | 1833 ft | 168 kts | 75° |
| 2026-04-23 04:28 | 30.44135 | -81.87863 | 1876 ft | 167 kts | 75° |
| 2026-04-23 04:28 | 30.44526 | -81.86594 | 1881 ft | 167 kts | 75° |
| 2026-04-23 04:28 | 30.44917 | -81.85324 | 1877 ft | 167 kts | 74° |
| 2026-04-23 04:28 | 30.45308 | -81.84052 | 1881 ft | 168 kts | 74° |
| 2026-04-23 04:29 | 30.45696 | -81.82791 | 1883 ft | 168 kts | 75° |
| 2026-04-23 04:29 | 30.46089 | -81.81514 | 1878 ft | 169 kts | 75° |
| 2026-04-23 04:29 | 30.46483 | -81.80230 | 1803 ft | 169 kts | 74° |
| 2026-04-23 04:29 | 30.46875 | -81.78954 | 1629 ft | 168 kts | 75° |
| 2026-04-23 04:30 | 30.47266 | -81.77681 | 1424 ft | 167 kts | 75° |
| 2026-04-23 04:30 | 30.47653 | -81.76421 | 1211 ft | 165 kts | 75° |
| 2026-04-23 04:30 | 30.48037 | -81.75168 | 996 ft | 164 kts | 76° |
| 2026-04-23 04:30 | 30.48418 | -81.73926 | 785 ft | 163 kts | 74° |
| 2026-04-23 04:31 | 30.48788 | -81.72702 | 486 ft | 162 kts | 73° |
| 2026-04-23 04:31 | 30.49146 | -81.71472 | 265 ft | 157 kts | 71° |
| 2026-04-23 04:31 | 30.49518 | -81.70285 | 183 ft | 149 kts | 70° |
| 2026-04-23 04:31 | 30.49844 | -81.69241 | 48 ft | 127 kts | 70° |
| 2026-04-23 04:32 | 30.50113 | -81.68390 | 41 ft | 92 kts | 70° |
| 2026-04-23 04:32 | 30.50261 | -81.67897 | 36 ft | 43 kts | 70° |
| 2026-04-23 04:32 | 30.50396 | -81.67473 | 31 ft | 70 kts | 69° |
| 2026-04-23 04:32 | 30.50465 | -81.67133 | 33 ft | 9 kts | 128° |
| 2026-04-23 04:33 | 30.50398 | -81.67110 | 34 ft | 7 kts | 162° |
| 2026-04-23 04:33 | 30.50288 | -81.67107 | 34 ft | 23 kts | 195° |
| 2026-04-23 04:33 | 30.50196 | -81.67303 | 32 ft | 43 kts | 249° |
| 2026-04-23 04:33 | 30.50089 | -81.67683 | 35 ft | 44 kts | 250° |
| 2026-04-23 04:34 | 30.49993 | -81.67967 | 36 ft | 36 kts | 249° |
| 2026-04-23 04:34 | 30.49913 | -81.68224 | 37 ft | 28 kts | 251° |
| 2026-04-23 04:34 | 30.49820 | -81.68357 | 36 ft | 10 kts | 193° |
| 2026-04-23 04:34 | 30.49816 | -81.68358 | 36 ft | 0 kts | 193° |
| 2026-04-23 04:38 | 30.49790 | -81.68368 | 36 ft | 19 kts | 189° |
| 2026-04-23 04:38 | 30.49631 | -81.68334 | 33 ft | 25 kts | 183° |
| 2026-04-23 04:38 | 30.49465 | -81.68410 | 37 ft | 25 kts | 199° |
| 2026-04-23 04:39 | 30.49306 | -81.68379 | 40 ft | 21 kts | 145° |
| 2026-04-23 04:39 | 30.49290 | -81.68352 | 40 ft | 0 kts | 104° |